Time,TemperatureF,DewpointF,PressureIn,WindDirection,WindDirectionDegrees,WindSpeedMPH,WindSpeedGustMPH,Humidity,HourlyPrecipIn,Conditions,Clouds,dailyrainin,SoftwareType,DateUTC
2013-06-21 00:05:00,72.5,64.2,30.26,SSE,167,7.0,9.0,75,0.00,,,0.00,Weather View 32 v70,2013-06-21 04:05:00,
2013-06-21 00:10:00,72.3,63.8,30.26,ESE,115,4.0,9.0,75,0.00,,,0.00,Weather View 32 v70,2013-06-21 04:10:00,
2013-06-21 00:15:00,72.5,64.0,30.26,SSW,201,3.0,9.0,75,0.00,,,0.00,Weather View 32 v70,2013-06-21 04:15:00,
2013-06-21 00:20:00,72.4,64.0,30.26,SSW,211,7.0,9.0,75,0.00,,,0.00,Weather View 32 v70,2013-06-21 04:20:00,
2013-06-21 00:25:00,72.4,63.9,30.26,SSW,203,3.0,9.0,75,0.00,,,0.00,Weather View 32 v70,2013-06-21 04:25:00,
2013-06-21 00:30:00,72.3,63.7,30.26,South,170,7.0,10.0,75,0.00,,,0.00,Weather View 32 v70,2013-06-21 04:30:00,
2013-06-21 00:32:00,72.3,63.7,30.26,South,170,7.0,10.0,75,0.00,,,0.00,Weather View 32 v70,2013-06-21 04:32:00,
2013-06-21 00:40:00,72.1,63.0,30.26,South,184,5.0,10.0,73,0.00,,,0.00,Weather View 32 v70,2013-06-21 04:40:00,
2013-06-21 00:45:00,72.1,63.1,30.26,South,174,5.0,10.0,74,0.00,,,0.00,Weather View 32 v70,2013-06-21 04:45:00,
2013-06-21 00:50:00,71.8,62.5,30.26,South,188,4.0,10.0,73,0.00,,,0.00,Weather View 32 v70,2013-06-21 04:50:00,
2013-06-21 01:00:00,71.8,62.6,30.26,South,169,4.0,10.0,73,0.00,,,0.00,Weather View 32 v70,2013-06-21 05:00:00,
2013-06-21 01:05:00,71.5,62.6,30.26,South,169,3.0,10.0,74,0.00,,,0.00,Weather View 32 v70,2013-06-21 05:05:00,
2013-06-21 01:10:00,71.5,62.6,30.26,South,174,3.0,10.0,74,0.00,,,0.00,Weather View 32 v70,2013-06-21 05:10:00,
2013-06-21 01:15:00,71.5,62.5,30.26,South,172,3.0,10.0,73,0.00,,,0.00,Weather View 32 v70,2013-06-21 05:15:00,
2013-06-21 01:20:00,71.5,62.9,30.27,SW,224,1.0,10.0,74,0.00,,,0.00,Weather View 32 v70,2013-06-21 05:20:00,
2013-06-21 01:30:00,71.2,62.6,30.27,SSW,200,3.0,10.0,74,0.00,,,0.00,Weather View 32 v70,2013-06-21 05:30:00,
2013-06-21 01:35:00,71.1,62.6,30.26,SSW,205,2.0,9.0,75,0.00,,,0.00,Weather View 32 v70,2013-06-21 05:35:00,
2013-06-21 01:40:00,70.8,62.7,30.26,SSW,207,0.0,8.0,76,0.00,,,0.00,Weather View 32 v70,2013-06-21 05:40:00,
2013-06-21 01:50:00,70.3,62.1,30.27,SW,228,2.0,7.0,75,0.00,,,0.00,Weather View 32 v70,2013-06-21 05:50:00,
2013-06-21 01:55:00,70.1,61.9,30.27,SSE,159,2.0,7.0,75,0.00,,,0.00,Weather View 32 v70,2013-06-21 05:55:00,
2013-06-21 02:00:00,69.8,61.7,30.27,SE,141,0.0,5.0,76,0.00,,,0.00,Weather View 32 v70,2013-06-21 06:00:00,
2013-06-21 02:10:00,69.5,62.1,30.27,SSE,159,0.0,5.0,77,0.00,,,0.00,Weather View 32 v70,2013-06-21 06:10:00,
2013-06-21 02:15:00,69.3,62.2,30.27,SSE,159,0.0,5.0,78,0.00,,,0.00,Weather View 32 v70,2013-06-21 06:15:00,
2013-06-21 02:20:00,69.2,62.2,30.27,SSE,167,2.0,5.0,78,0.00,,,0.00,Weather View 32 v70,2013-06-21 06:20:00,
2013-06-21 02:30:00,68.3,61.7,30.27,SSE,153,0.0,5.0,80,0.00,,,0.00,Weather View 32 v70,2013-06-21 06:30:00,
2013-06-21 02:35:00,68.1,61.9,30.26,ESE,115,0.0,5.0,81,0.00,,,0.00,Weather View 32 v70,2013-06-21 06:35:00,
2013-06-21 02:40:00,67.8,61.6,30.26,ESE,115,0.0,5.0,81,0.00,,,0.00,Weather View 32 v70,2013-06-21 06:40:00,
2013-06-21 02:50:00,67.1,61.1,30.26,South,180,4.0,7.0,81,0.00,,,0.00,Weather View 32 v70,2013-06-21 06:50:00,
2013-06-21 02:55:00,66.9,61.0,30.26,SSW,194,3.0,7.0,81,0.00,,,0.00,Weather View 32 v70,2013-06-21 06:55:00,
2013-06-21 03:00:00,66.8,61.0,30.26,SSW,204,3.0,7.0,82,0.00,,,0.00,Weather View 32 v70,2013-06-21 07:00:00,
2013-06-21 03:05:00,66.9,61.4,30.26,SSW,210,1.0,7.0,83,0.00,,,0.00,Weather View 32 v70,2013-06-21 07:05:00,
2013-06-21 03:10:00,66.5,61.1,30.26,SW,235,3.0,7.0,83,0.00,,,0.00,Weather View 32 v70,2013-06-21 07:10:00,
2013-06-21 03:15:00,66.4,61.0,30.26,WSW,243,4.0,7.0,83,0.00,,,0.00,Weather View 32 v70,2013-06-21 07:15:00,
2013-06-21 03:20:00,66.4,60.9,30.26,SSW,208,1.0,7.0,83,0.00,,,0.00,Weather View 32 v70,2013-06-21 07:20:00,
2013-06-21 03:25:00,66.6,61.1,30.26,SW,215,1.0,7.0,82,0.00,,,0.00,Weather View 32 v70,2013-06-21 07:25:00,
2013-06-21 03:30:00,66.6,61.0,30.26,South,187,0.0,7.0,82,0.00,,,0.00,Weather View 32 v70,2013-06-21 07:30:00,
2013-06-21 03:35:00,66.6,61.2,30.27,South,187,0.0,7.0,83,0.00,,,0.00,Weather View 32 v70,2013-06-21 07:35:00,
2013-06-21 03:40:00,66.7,61.5,30.26,South,187,0.0,7.0,84,0.00,,,0.00,Weather View 32 v70,2013-06-21 07:40:00,
2013-06-21 03:50:00,66.2,61.3,30.26,SE,124,1.0,5.0,84,0.00,,,0.00,Weather View 32 v70,2013-06-21 07:50:00,
2013-06-21 03:55:00,66.1,61.3,30.26,ENE,69,0.0,5.0,85,0.00,,,0.00,Weather View 32 v70,2013-06-21 07:55:00,
2013-06-21 04:00:00,65.8,61.0,30.27,ENE,69,0.0,5.0,85,0.00,,,0.00,Weather View 32 v70,2013-06-21 08:00:00,
2013-06-21 04:10:00,65.1,60.6,30.26,ENE,69,0.0,5.0,85,0.00,,,0.00,Weather View 32 v70,2013-06-21 08:10:00,
2013-06-21 04:15:00,64.8,60.4,30.27,ENE,69,0.0,4.0,86,0.00,,,0.00,Weather View 32 v70,2013-06-21 08:15:00,
2013-06-21 04:20:00,64.7,60.5,30.27,South,181,0.0,4.0,86,0.00,,,0.00,Weather View 32 v70,2013-06-21 08:20:00,
2013-06-21 04:25:00,64.6,60.5,30.26,South,181,0.0,2.0,87,0.00,,,0.00,Weather View 32 v70,2013-06-21 08:25:00,
2013-06-21 04:30:00,64.5,60.4,30.26,South,181,0.0,2.0,87,0.00,,,0.00,Weather View 32 v70,2013-06-21 08:30:00,
2013-06-21 04:35:00,64.3,60.4,30.26,South,181,0.0,2.0,87,0.00,,,0.00,Weather View 32 v70,2013-06-21 08:35:00,
2013-06-21 04:40:00,64.2,60.4,30.26,South,181,0.0,2.0,88,0.00,,,0.00,Weather View 32 v70,2013-06-21 08:40:00,
2013-06-21 04:50:00,63.8,60.3,30.26,South,181,0.0,2.0,89,0.00,,,0.00,Weather View 32 v70,2013-06-21 08:50:00,
2013-06-21 04:55:00,63.3,60.0,30.26,South,181,0.0,2.0,89,0.00,,,0.00,Weather View 32 v70,2013-06-21 08:55:00,
2013-06-21 05:00:00,63.1,60.1,30.26,South,181,0.0,2.0,90,0.00,,,0.00,Weather View 32 v70,2013-06-21 09:00:00,
2013-06-21 05:10:00,62.7,60.1,30.26,South,181,0.0,2.0,91,0.00,,,0.00,Weather View 32 v70,2013-06-21 09:10:00,
2013-06-21 05:15:00,62.7,60.1,30.27,South,181,0.0,2.0,91,0.00,,,0.00,Weather View 32 v70,2013-06-21 09:15:00,
2013-06-21 05:20:00,62.7,60.1,30.27,South,181,0.0,1.0,91,0.00,,,0.00,Weather View 32 v70,2013-06-21 09:20:00,
2013-06-21 05:25:00,62.8,60.2,30.28,South,181,0.0,0.0,91,0.00,,,0.00,Weather View 32 v70,2013-06-21 09:25:00,
2013-06-21 05:30:00,62.7,60.1,30.28,East,91,1.0,3.0,91,0.00,,,0.00,Weather View 32 v70,2013-06-21 09:30:00,
2013-06-21 05:35:00,62.6,60.0,30.28,East,101,0.0,3.0,91,0.00,,,0.00,Weather View 32 v70,2013-06-21 09:35:00,
2013-06-21 05:40:00,62.4,59.8,30.27,East,101,0.0,3.0,91,0.00,,,0.00,Weather View 32 v70,2013-06-21 09:40:00,
2013-06-21 05:50:00,62.3,59.8,30.28,East,101,0.0,3.0,92,0.00,,,0.00,Weather View 32 v70,2013-06-21 09:50:00,
2013-06-21 05:55:00,62.3,59.8,30.28,East,101,0.0,3.0,92,0.00,,,0.00,Weather View 32 v70,2013-06-21 09:55:00,
2013-06-21 06:00:00,62.1,59.6,30.28,SSW,200,3.0,3.0,92,0.00,,,0.00,Weather View 32 v70,2013-06-21 10:00:00,
2013-06-21 06:10:00,62.2,59.8,30.28,SW,229,0.0,3.0,92,0.00,,,0.00,Weather View 32 v70,2013-06-21 10:10:00,
2013-06-21 06:15:00,62.1,59.8,30.28,SSW,195,2.0,3.0,92,0.00,,,0.00,Weather View 32 v70,2013-06-21 10:15:00,
2013-06-21 06:20:00,62.2,59.9,30.28,SSW,203,0.0,4.0,92,0.00,,,0.00,Weather View 32 v70,2013-06-21 10:20:00,
2013-06-21 06:30:00,62.3,60.0,30.29,SSW,203,0.0,4.0,92,0.00,,,0.00,Weather View 32 v70,2013-06-21 10:30:00,
2013-06-21 06:35:00,62.4,60.1,30.29,SSW,203,0.0,4.0,92,0.00,,,0.00,Weather View 32 v70,2013-06-21 10:35:00,
2013-06-21 06:45:00,62.8,60.4,30.29,SE,142,2.0,4.0,92,0.00,,,0.00,Weather View 32 v70,2013-06-21 10:45:00,
2013-06-21 06:55:00,63.1,60.6,30.29,East,91,0.0,4.0,92,0.00,,,0.00,Weather View 32 v70,2013-06-21 10:55:00,
2013-06-21 07:00:00,63.4,60.9,30.30,East,91,0.0,4.0,92,0.00,,,0.00,Weather View 32 v70,2013-06-21 11:00:00,
2013-06-21 07:05:00,63.5,61.0,30.30,East,91,0.0,4.0,92,0.00,,,0.00,Weather View 32 v70,2013-06-21 11:05:00,
2013-06-21 07:10:00,63.6,61.0,30.30,East,91,0.0,4.0,91,0.00,,,0.00,Weather View 32 v70,2013-06-21 11:10:00,
2013-06-21 07:20:00,64.0,61.2,30.30,ESE,107,0.0,2.0,91,0.00,,,0.00,Weather View 32 v70,2013-06-21 11:20:00,
2013-06-21 07:25:00,64.1,61.4,30.30,NE,41,0.0,2.0,91,0.00,,,0.00,Weather View 32 v70,2013-06-21 11:25:00,
2013-06-21 07:30:00,64.2,61.5,30.30,South,187,2.0,3.0,91,0.00,,,0.00,Weather View 32 v70,2013-06-21 11:30:00,
2013-06-21 07:36:00,64.4,61.8,30.30,SSW,211,1.0,3.0,91,0.00,,,0.00,Weather View 32 v70,2013-06-21 11:36:00,
2013-06-21 07:45:00,65.0,61.8,30.30,SSW,210,3.0,3.0,89,0.00,,,0.00,Weather View 32 v70,2013-06-21 11:45:00,
2013-06-21 07:55:00,65.5,61.6,30.30,SSE,167,1.0,4.0,87,0.00,,,0.00,Weather View 32 v70,2013-06-21 11:55:00,
2013-06-21 08:00:00,65.8,61.9,30.30,SE,146,0.0,4.0,87,0.00,,,0.00,Weather View 32 v70,2013-06-21 12:00:00,
2013-06-21 08:05:00,66.1,62.0,30.30,SSW,200,5.0,5.0,87,0.00,,,0.00,Weather View 32 v70,2013-06-21 12:05:00,
2013-06-21 08:15:00,66.5,61.5,30.30,SSE,162,0.0,5.0,84,0.00,,,0.00,Weather View 32 v70,2013-06-21 12:15:00,
2013-06-21 08:20:00,66.8,61.7,30.30,South,173,4.0,5.0,84,0.00,,,0.00,Weather View 32 v70,2013-06-21 12:20:00,
2013-06-21 08:25:00,67.0,61.5,30.30,SSE,155,1.0,5.0,83,0.00,,,0.00,Weather View 32 v70,2013-06-21 12:25:00,
2013-06-21 08:30:00,67.3,61.7,30.30,South,170,1.0,5.0,82,0.00,,,0.00,Weather View 32 v70,2013-06-21 12:30:00,
2013-06-21 08:35:00,67.8,62.0,30.30,SSE,165,1.0,5.0,82,0.00,,,0.00,Weather View 32 v70,2013-06-21 12:35:00,
2013-06-21 08:40:00,68.0,61.7,30.30,South,173,0.0,5.0,80,0.00,,,0.00,Weather View 32 v70,2013-06-21 12:40:00,
2013-06-21 08:50:00,68.5,62.5,30.30,SSE,155,2.0,5.0,81,0.00,,,0.00,Weather View 32 v70,2013-06-21 12:50:00,
2013-06-21 08:55:00,68.8,62.9,30.30,ENE,70,2.0,5.0,81,0.00,,,0.00,Weather View 32 v70,2013-06-21 12:55:00,
2013-06-21 09:00:00,69.4,63.2,30.30,NNE,18,1.0,5.0,81,0.00,,,0.00,Weather View 32 v70,2013-06-21 13:00:00,
2013-06-21 09:10:00,70.1,63.3,30.30,NE,44,0.0,4.0,79,0.00,,,0.00,Weather View 32 v70,2013-06-21 13:10:00,
2013-06-21 09:15:00,70.4,63.4,30.30,SW,215,2.0,6.0,79,0.00,,,0.00,Weather View 32 v70,2013-06-21 13:15:00,
2013-06-21 09:20:00,70.5,63.0,30.30,SSW,203,4.0,6.0,77,0.00,,,0.00,Weather View 32 v70,2013-06-21 13:20:00,
2013-06-21 09:25:00,70.7,63.7,30.30,ENE,68,3.0,6.0,79,0.00,,,0.00,Weather View 32 v70,2013-06-21 13:25:00,
2013-06-21 09:30:00,71.1,63.1,30.30,WSW,252,2.0,6.0,76,0.00,,,0.00,Weather View 32 v70,2013-06-21 13:30:00,
2013-06-21 09:35:00,71.3,62.9,30.29,SE,132,0.0,6.0,75,0.00,,,0.00,Weather View 32 v70,2013-06-21 13:35:00,
2013-06-21 09:40:00,71.6,63.7,30.29,NE,53,0.0,6.0,76,0.00,,,0.00,Weather View 32 v70,2013-06-21 13:40:00,
2013-06-21 09:45:00,71.9,63.3,30.29,SW,235,4.0,6.0,74,0.00,,,0.00,Weather View 32 v70,2013-06-21 13:45:00,
2013-06-21 09:50:00,72.3,63.5,30.29,SSW,198,6.0,6.0,74,0.00,,,0.00,Weather View 32 v70,2013-06-21 13:50:00,
2013-06-21 09:55:00,72.5,63.6,30.29,South,190,2.0,6.0,74,0.00,,,0.00,Weather View 32 v70,2013-06-21 13:55:00,
2013-06-21 10:00:00,72.8,64.0,30.29,SSE,159,1.0,6.0,74,0.00,,,0.00,Weather View 32 v70,2013-06-21 14:00:00,
2013-06-21 10:05:00,73.2,64.7,30.29,East,96,2.0,6.0,75,0.00,,,0.00,Weather View 32 v70,2013-06-21 14:05:00,
2013-06-21 10:15:00,73.8,64.4,30.29,South,183,3.0,8.0,73,0.00,,,0.00,Weather View 32 v70,2013-06-21 14:15:00,
2013-06-21 10:20:00,74.0,64.2,30.29,SE,125,3.0,8.0,72,0.00,,,0.00,Weather View 32 v70,2013-06-21 14:20:00,
2013-06-21 10:25:00,74.1,64.6,30.29,WSW,252,0.0,9.0,72,0.00,,,0.00,Weather View 32 v70,2013-06-21 14:25:00,
2013-06-21 10:30:00,74.5,65.4,30.29,SE,132,1.0,9.0,73,0.00,,,0.00,Weather View 32 v70,2013-06-21 14:30:00,
2013-06-21 10:35:00,74.6,64.9,30.29,SE,128,1.0,9.0,72,0.00,,,0.00,Weather View 32 v70,2013-06-21 14:35:00,
2013-06-21 10:45:00,75.3,66.2,30.29,SE,134,3.0,9.0,74,0.00,,,0.00,Weather View 32 v70,2013-06-21 14:45:00,
2013-06-21 10:55:00,76.1,66.6,30.29,NNE,18,3.0,9.0,73,0.00,,,0.00,Weather View 32 v70,2013-06-21 14:55:00,
2013-06-21 11:00:00,76.6,67.0,30.28,ENE,59,2.0,9.0,72,0.00,,,0.00,Weather View 32 v70,2013-06-21 15:00:00,
2013-06-21 11:05:00,77.0,67.3,30.28,SSE,158,5.0,9.0,72,0.00,,,0.00,Weather View 32 v70,2013-06-21 15:05:00,
2013-06-21 11:15:00,77.2,66.7,30.28,ESE,107,1.0,9.0,70,0.00,,,0.00,Weather View 32 v70,2013-06-21 15:15:00,
2013-06-21 11:20:00,77.2,65.8,30.28,SSE,153,1.0,9.0,68,0.00,,,0.00,Weather View 32 v70,2013-06-21 15:20:00,
2013-06-21 11:25:00,77.3,66.9,30.28,WNW,300,1.0,7.0,70,0.00,,,0.00,Weather View 32 v70,2013-06-21 15:25:00,
2013-06-21 11:30:00,77.5,66.8,30.28,West,267,1.0,7.0,70,0.00,,,0.00,Weather View 32 v70,2013-06-21 15:30:00,
2013-06-21 11:35:00,78.0,67.1,30.28,NW,305,3.0,7.0,69,0.00,,,0.00,Weather View 32 v70,2013-06-21 15:35:00,
2013-06-21 11:40:00,78.1,67.0,30.28,West,273,1.0,6.0,69,0.00,,,0.00,Weather View 32 v70,2013-06-21 15:40:00,
2013-06-21 11:50:00,78.7,67.7,30.29,WNW,301,1.0,6.0,69,0.00,,,0.00,Weather View 32 v70,2013-06-21 15:50:00,
2013-06-21 11:55:00,78.7,66.7,30.29,West,264,0.0,6.0,67,0.00,,,0.00,Weather View 32 v70,2013-06-21 15:55:00,
2013-06-21 12:00:00,78.8,67.0,30.29,SSE,153,3.0,6.0,67,0.00,,,0.00,Weather View 32 v70,2013-06-21 16:00:00,
2013-06-21 12:05:00,79.0,67.4,30.29,SE,124,1.0,6.0,68,0.00,,,0.00,Weather View 32 v70,2013-06-21 16:05:00,
2013-06-21 12:10:00,79.7,68.9,30.29,NE,39,4.0,6.0,70,0.00,,,0.00,Weather View 32 v70,2013-06-21 16:10:00,
2013-06-21 12:20:00,80.4,69.2,30.29,ESE,110,4.0,6.0,69,0.00,,,0.00,Weather View 32 v70,2013-06-21 16:20:00,
2013-06-21 12:25:00,80.6,68.0,30.29,WSW,250,0.0,6.0,66,0.00,,,0.00,Weather View 32 v70,2013-06-21 16:25:00,
2013-06-21 12:30:00,80.7,68.4,30.28,SSE,163,1.0,6.0,66,0.00,,,0.00,Weather View 32 v70,2013-06-21 16:30:00,
2013-06-21 12:35:00,80.5,66.9,30.28,WSW,249,2.0,6.0,63,0.00,,,0.00,Weather View 32 v70,2013-06-21 16:35:00,
2013-06-21 12:45:00,80.7,69.4,30.29,East,86,1.0,6.0,69,0.00,,,0.00,Weather View 32 v70,2013-06-21 16:45:00,
2013-06-21 12:50:00,81.3,69.1,30.28,SW,228,3.0,6.0,67,0.00,,,0.00,Weather View 32 v70,2013-06-21 16:50:00,
2013-06-21 13:00:00,81.6,68.0,30.28,SSW,193,3.0,7.0,64,0.00,,,0.00,Weather View 32 v70,2013-06-21 17:00:00,
2013-06-21 13:05:00,81.8,70.2,30.28,East,93,2.0,7.0,68,0.00,,,0.00,Weather View 32 v70,2013-06-21 17:05:00,
2013-06-21 13:20:00,82.4,70.2,30.28,ESE,117,4.0,7.0,67,0.00,,,0.00,Weather View 32 v70,2013-06-21 17:20:00,
2013-06-21 13:30:00,82.8,69.6,30.26,South,190,2.0,7.0,65,0.00,,,0.00,Weather View 32 v70,2013-06-21 17:30:00,
2013-06-21 13:35:00,83.1,69.7,30.26,NE,45,2.0,9.0,64,0.00,,,0.00,Weather View 32 v70,2013-06-21 17:35:00,
2013-06-21 13:40:00,83.5,68.5,30.26,SSW,205,3.0,9.0,61,0.00,,,0.00,Weather View 32 v70,2013-06-21 17:40:00,
2013-06-21 13:45:00,83.4,70.2,30.26,SW,228,2.0,9.0,65,0.00,,,0.00,Weather View 32 v70,2013-06-21 17:45:00,
2013-06-21 13:50:00,83.5,68.9,30.26,NE,49,3.0,9.0,62,0.00,,,0.00,Weather View 32 v70,2013-06-21 17:50:00,
2013-06-21 13:55:00,83.0,68.6,30.26,SSE,160,1.0,9.0,62,0.00,,,0.00,Weather View 32 v70,2013-06-21 17:55:00,
2013-06-21 14:00:00,83.0,68.8,30.26,SSE,162,4.0,10.0,63,0.00,,,0.00,Weather View 32 v70,2013-06-21 18:00:00,
2013-06-21 14:05:00,83.6,68.0,30.26,East,101,4.0,10.0,60,0.00,,,0.00,Weather View 32 v70,2013-06-21 18:05:00,
2013-06-21 14:15:00,84.5,67.9,30.26,SSE,148,4.0,10.0,58,0.00,,,0.00,Weather View 32 v70,2013-06-21 18:15:00,
2013-06-21 14:20:00,84.9,69.0,30.26,South,173,2.0,10.0,59,0.00,,,0.00,Weather View 32 v70,2013-06-21 18:20:00,
2013-06-21 14:25:00,85.3,68.6,30.26,SSW,197,6.0,10.0,58,0.00,,,0.00,Weather View 32 v70,2013-06-21 18:25:00,
2013-06-21 14:30:00,85.1,67.7,30.26,SSW,205,7.0,13.0,56,0.00,,,0.00,Weather View 32 v70,2013-06-21 18:30:00,
2013-06-21 14:35:00,85.1,67.6,30.26,SW,225,9.0,13.0,56,0.00,,,0.00,Weather View 32 v70,2013-06-21 18:35:00,
2013-06-21 14:45:00,85.2,68.0,30.26,SSE,163,4.0,13.0,57,0.00,,,0.00,Weather View 32 v70,2013-06-21 18:45:00,
2013-06-21 14:50:00,85.3,67.2,30.27,ENE,73,3.0,13.0,55,0.00,,,0.00,Weather View 32 v70,2013-06-21 18:50:00,
2013-06-21 14:55:00,85.5,67.6,30.27,ESE,104,2.0,13.0,55,0.00,,,0.00,Weather View 32 v70,2013-06-21 18:55:00,
2013-06-21 15:05:00,85.7,66.3,30.26,SSE,158,1.0,13.0,53,0.00,,,0.00,Weather View 32 v70,2013-06-21 19:05:00,
2013-06-21 15:15:00,86.3,67.2,30.26,SSW,210,4.0,13.0,53,0.00,,,0.00,Weather View 32 v70,2013-06-21 19:15:00,
2013-06-21 15:20:00,86.5,66.8,30.26,SE,146,6.0,13.0,52,0.00,,,0.00,Weather View 32 v70,2013-06-21 19:20:00,
2013-06-21 15:30:00,86.5,66.7,30.26,SE,146,3.0,11.0,52,0.00,,,0.00,Weather View 32 v70,2013-06-21 19:30:00,
2013-06-21 15:35:00,86.2,65.5,30.26,SSW,194,3.0,10.0,50,0.00,,,0.00,Weather View 32 v70,2013-06-21 19:35:00,
2013-06-21 15:40:00,86.3,64.9,30.26,SSE,155,3.0,10.0,49,0.00,,,0.00,Weather View 32 v70,2013-06-21 19:40:00,
2013-06-21 15:45:00,86.4,68.3,30.26,SW,235,2.0,10.0,55,0.00,,,0.00,Weather View 32 v70,2013-06-21 19:45:00,
2013-06-21 15:55:00,86.7,66.9,30.25,SSW,211,5.0,10.0,52,0.00,,,0.00,Weather View 32 v70,2013-06-21 19:55:00,
2013-06-21 16:00:00,86.8,66.8,30.25,South,169,1.0,10.0,52,0.00,,,0.00,Weather View 32 v70,2013-06-21 20:00:00,
2013-06-21 16:05:00,87.3,67.2,30.25,SSW,208,3.0,10.0,52,0.00,,,0.00,Weather View 32 v70,2013-06-21 20:05:00,
2013-06-21 16:10:00,87.4,67.6,30.25,SSE,148,3.0,10.0,52,0.00,,,0.00,Weather View 32 v70,2013-06-21 20:10:00,
2013-06-21 16:15:00,87.7,68.2,30.24,SW,221,4.0,10.0,53,0.00,,,0.00,Weather View 32 v70,2013-06-21 20:15:00,
2013-06-21 16:20:00,87.8,66.9,30.24,ESE,108,5.0,10.0,50,0.00,,,0.00,Weather View 32 v70,2013-06-21 20:20:00,
2013-06-21 16:30:00,87.0,66.9,30.24,SE,132,2.0,10.0,52,0.00,,,0.00,Weather View 32 v70,2013-06-21 20:30:00,
2013-06-21 16:35:00,86.8,66.4,30.24,ENE,68,3.0,10.0,51,0.00,,,0.00,Weather View 32 v70,2013-06-21 20:35:00,
2013-06-21 16:40:00,86.5,66.9,30.24,NNE,21,5.0,11.0,52,0.00,,,0.00,Weather View 32 v70,2013-06-21 20:40:00,
2013-06-21 16:45:00,86.4,65.7,30.24,East,96,5.0,13.0,50,0.00,,,0.00,Weather View 32 v70,2013-06-21 20:45:00,
2013-06-21 16:50:00,86.2,65.1,30.24,SE,132,3.0,13.0,50,0.00,,,0.00,Weather View 32 v70,2013-06-21 20:50:00,
2013-06-21 17:00:00,86.2,65.7,30.24,SE,146,9.0,13.0,51,0.00,,,0.00,Weather View 32 v70,2013-06-21 21:00:00,
2013-06-21 17:05:00,85.9,64.4,30.23,SE,128,8.0,13.0,49,0.00,,,0.00,Weather View 32 v70,2013-06-21 21:05:00,
2013-06-21 17:10:00,85.7,64.2,30.23,SE,124,6.0,13.0,49,0.00,,,0.00,Weather View 32 v70,2013-06-21 21:10:00,
2013-06-21 17:15:00,85.5,64.6,30.23,South,169,7.0,13.0,50,0.00,,,0.00,Weather View 32 v70,2013-06-21 21:15:00,
2013-06-21 17:20:00,85.9,65.3,30.23,SW,225,2.0,13.0,50,0.00,,,0.00,Weather View 32 v70,2013-06-21 21:20:00,
2013-06-21 17:25:00,86.0,62.6,30.24,SSW,203,4.0,13.0,46,0.00,,,0.00,Weather View 32 v70,2013-06-21 21:25:00,
2013-06-21 17:30:00,85.7,61.7,30.24,East,90,3.0,13.0,45,0.00,,,0.00,Weather View 32 v70,2013-06-21 21:30:00,
2013-06-21 17:35:00,85.4,62.2,30.23,SSE,155,2.0,13.0,46,0.00,,,0.00,Weather View 32 v70,2013-06-21 21:35:00,
2013-06-21 17:40:00,85.4,63.3,30.23,NNE,15,5.0,13.0,48,0.00,,,0.00,Weather View 32 v70,2013-06-21 21:40:00,
2013-06-21 17:50:00,85.0,61.6,30.23,SSE,148,7.0,15.0,46,0.00,,,0.00,Weather View 32 v70,2013-06-21 21:50:00,
2013-06-21 17:55:00,84.8,62.2,30.23,SSE,163,1.0,15.0,47,0.00,,,0.00,Weather View 32 v70,2013-06-21 21:55:00,
2013-06-21 18:00:00,84.6,61.5,30.23,SSE,155,7.0,15.0,46,0.00,,,0.00,Weather View 32 v70,2013-06-21 22:00:00,
2013-06-21 18:15:00,83.8,62.2,30.23,ESE,103,4.0,15.0,49,0.00,,,0.00,Weather View 32 v70,2013-06-21 22:15:00,
2013-06-21 18:25:00,83.6,62.5,30.23,NNE,14,3.0,15.0,49,0.00,,,0.00,Weather View 32 v70,2013-06-21 22:25:00,
2013-06-21 18:30:00,83.6,61.7,30.22,NNW,328,3.0,15.0,48,0.00,,,0.00,Weather View 32 v70,2013-06-21 22:30:00,
2013-06-21 18:35:00,83.4,62.5,30.22,SW,222,4.0,15.0,50,0.00,,,0.00,Weather View 32 v70,2013-06-21 22:35:00,
2013-06-21 18:40:00,82.8,62.1,30.23,ESE,111,6.0,15.0,50,0.00,,,0.00,Weather View 32 v70,2013-06-21 22:40:00,
2013-06-21 18:45:00,82.5,61.7,30.23,SE,128,7.0,15.0,50,0.00,,,0.00,Weather View 32 v70,2013-06-21 22:45:00,
2013-06-21 18:55:00,81.3,61.7,30.23,West,263,2.0,14.0,52,0.00,,,0.00,Weather View 32 v70,2013-06-21 22:55:00,
2013-06-21 19:00:00,81.5,61.8,30.23,SE,141,6.0,14.0,52,0.00,,,0.00,Weather View 32 v70,2013-06-21 23:00:00,
2013-06-21 19:05:00,81.1,61.4,30.23,South,191,4.0,14.0,51,0.00,,,0.00,Weather View 32 v70,2013-06-21 23:05:00,
2013-06-21 19:15:00,80.5,61.6,30.23,SE,143,4.0,15.0,53,0.00,,,0.00,Weather View 32 v70,2013-06-21 23:15:00,
2013-06-21 19:20:00,80.4,61.6,30.23,SSE,160,9.0,15.0,53,0.00,,,0.00,Weather View 32 v70,2013-06-21 23:20:00,
2013-06-21 19:30:00,79.9,61.8,30.24,ESE,103,9.0,15.0,54,0.00,,,0.00,Weather View 32 v70,2013-06-21 23:30:00,
2013-06-21 19:35:00,79.3,60.8,30.24,SSE,149,12.0,15.0,53,0.00,,,0.00,Weather View 32 v70,2013-06-21 23:35:00,
2013-06-21 19:40:00,79.1,61.4,30.24,SSW,193,2.0,15.0,55,0.00,,,0.00,Weather View 32 v70,2013-06-21 23:40:00,
2013-06-21 19:45:00,79.1,61.9,30.24,South,177,5.0,15.0,56,0.00,,,0.00,Weather View 32 v70,2013-06-21 23:45:00,
2013-06-21 19:55:00,78.4,61.7,30.24,South,173,5.0,15.0,57,0.00,,,0.00,Weather View 32 v70,2013-06-21 23:55:00,
2013-06-21 20:00:00,78.2,61.7,30.24,ESE,117,4.0,15.0,57,0.00,,,0.00,Weather View 32 v70,2013-06-22 00:00:00,
2013-06-21 20:10:00,77.8,61.7,30.23,East,93,3.0,13.0,58,0.00,,,0.00,Weather View 32 v70,2013-06-22 00:10:00,
2013-06-21 20:15:00,77.2,61.7,30.23,ENE,60,1.0,13.0,59,0.00,,,0.00,Weather View 32 v70,2013-06-22 00:15:00,
2013-06-21 20:20:00,77.0,62.3,30.23,SE,146,4.0,13.0,61,0.00,,,0.00,Weather View 32 v70,2013-06-22 00:20:00,
2013-06-21 20:25:00,76.7,62.5,30.23,WSW,246,2.0,12.0,62,0.00,,,0.00,Weather View 32 v70,2013-06-22 00:25:00,
2013-06-21 20:30:00,76.4,62.5,30.24,SSE,149,0.0,12.0,62,0.00,,,0.00,Weather View 32 v70,2013-06-22 00:30:00,
2013-06-21 20:35:00,76.2,62.6,30.24,East,86,0.0,12.0,63,0.00,,,0.00,Weather View 32 v70,2013-06-22 00:35:00,
2013-06-21 20:40:00,75.9,62.4,30.24,SE,131,0.0,9.0,63,0.00,,,0.00,Weather View 32 v70,2013-06-22 00:40:00,
2013-06-21 20:50:00,75.2,62.4,30.24,West,267,1.0,9.0,65,0.00,,,0.00,Weather View 32 v70,2013-06-22 00:50:00,
2013-06-21 20:55:00,74.9,62.3,30.24,SSW,211,3.0,9.0,65,0.00,,,0.00,Weather View 32 v70,2013-06-22 00:55:00,
2013-06-21 21:00:00,74.6,62.4,30.24,SSW,208,5.0,9.0,66,0.00,,,0.00,Weather View 32 v70,2013-06-22 01:00:00,
2013-06-21 21:05:00,74.4,62.6,30.24,SSW,211,5.0,9.0,67,0.00,,,0.00,Weather View 32 v70,2013-06-22 01:05:00,
2013-06-21 21:15:00,74.0,62.4,30.24,SSE,152,2.0,9.0,67,0.00,,,0.00,Weather View 32 v70,2013-06-22 01:15:00,
2013-06-21 21:20:00,74.0,62.5,30.24,South,184,4.0,9.0,68,0.00,,,0.00,Weather View 32 v70,2013-06-22 01:20:00,
2013-06-21 21:25:00,73.7,62.3,30.24,SW,219,6.0,9.0,68,0.00,,,0.00,Weather View 32 v70,2013-06-22 01:25:00,
2013-06-21 21:30:00,73.4,61.9,30.24,East,91,1.0,9.0,67,0.00,,,0.00,Weather View 32 v70,2013-06-22 01:30:00,
2013-06-21 21:35:00,73.6,62.1,30.24,South,183,2.0,9.0,68,0.00,,,0.00,Weather View 32 v70,2013-06-22 01:35:00,
2013-06-21 21:40:00,73.5,61.8,30.24,South,186,4.0,10.0,67,0.00,,,0.00,Weather View 32 v70,2013-06-22 01:40:00,
2013-06-21 21:45:00,73.5,61.7,30.25,SSE,153,5.0,10.0,67,0.00,,,0.00,Weather View 32 v70,2013-06-22 01:45:00,
2013-06-21 21:55:00,73.4,61.4,30.25,SW,217,4.0,10.0,66,0.00,,,0.00,Weather View 32 v70,2013-06-22 01:55:00,
2013-06-21 22:00:00,73.2,61.0,30.25,South,174,5.0,10.0,66,0.00,,,0.00,Weather View 32 v70,2013-06-22 02:00:00,
2013-06-21 22:10:00,73.2,61.0,30.26,SW,217,2.0,10.0,66,0.00,,,0.00,Weather View 32 v70,2013-06-22 02:10:00,
2013-06-21 22:15:00,73.2,61.3,30.26,West,280,0.0,10.0,66,0.00,,,0.00,Weather View 32 v70,2013-06-22 02:15:00,
2013-06-21 22:20:00,72.8,60.5,30.26,South,172,0.0,10.0,66,0.00,,,0.00,Weather View 32 v70,2013-06-22 02:20:00,
2013-06-21 22:25:00,72.9,60.4,30.26,WSW,242,1.0,10.0,65,0.00,,,0.00,Weather View 32 v70,2013-06-22 02:25:00,
2013-06-21 22:30:00,73.0,60.5,30.26,WSW,257,2.0,10.0,65,0.00,,,0.00,Weather View 32 v70,2013-06-22 02:30:00,
2013-06-21 22:35:00,72.8,60.2,30.26,WSW,255,5.0,10.0,65,0.00,,,0.00,Weather View 32 v70,2013-06-22 02:35:00,
2013-06-21 22:40:00,72.6,60.0,30.27,SSW,207,5.0,9.0,65,0.00,,,0.00,Weather View 32 v70,2013-06-22 02:40:00,
2013-06-21 22:45:00,72.5,59.8,30.27,WSW,246,3.0,9.0,64,0.00,,,0.00,Weather View 32 v70,2013-06-22 02:45:00,
2013-06-21 22:55:00,72.5,60.5,30.27,SW,214,2.0,9.0,66,0.00,,,0.00,Weather View 32 v70,2013-06-22 02:55:00,
2013-06-21 23:00:00,72.4,60.9,30.27,SW,218,2.0,8.0,67,0.00,,,0.00,Weather View 32 v70,2013-06-22 03:00:00,
2013-06-21 23:10:00,71.9,61.3,30.27,SSW,211,1.0,6.0,69,0.00,,,0.00,Weather View 32 v70,2013-06-22 03:10:00,
2013-06-21 23:15:00,71.5,61.4,30.27,SSW,207,2.0,6.0,71,0.00,,,0.00,Weather View 32 v70,2013-06-22 03:15:00,
2013-06-21 23:20:00,71.2,61.7,30.26,South,176,3.0,6.0,72,0.00,,,0.00,Weather View 32 v70,2013-06-22 03:20:00,
2013-06-21 23:25:00,70.6,61.5,30.26,SW,231,2.0,6.0,73,0.00,,,0.00,Weather View 32 v70,2013-06-22 03:25:00,
2013-06-21 23:30:00,70.2,61.6,30.26,South,187,2.0,6.0,74,0.00,,,0.00,Weather View 32 v70,2013-06-22 03:30:00,
2013-06-21 23:35:00,69.6,61.6,30.26,South,173,4.0,6.0,76,0.00,,,0.00,Weather View 32 v70,2013-06-22 03:35:00,
2013-06-21 23:40:00,69.4,61.4,30.26,South,179,4.0,6.0,76,0.00,,,0.00,Weather View 32 v70,2013-06-22 03:40:00,
2013-06-21 23:46:00,69.1,61.3,30.26,South,169,3.0,6.0,76,0.00,,,0.00,Weather View 32 v70,2013-06-22 03:46:00,
2013-06-21 23:55:00,68.6,61.5,30.26,SW,221,1.0,5.0,78,0.00,,,0.00,Weather View 32 v70,2013-06-22 03:55:00,